Kirkwood, Missouri
Current Conditions -  °F | °C
As of 9:51 PM on Thursday 18 Dec 2014 (Local Time) from KSTL Reporting Station
Overcast Overcast  
Wind Chill: 30°   Ceiling: 3000
Heat Index: 34°   Visibility: 10mi
Dew Point: 25°   Wind: 5mph
Humidity: 70%   Direction: 60°ENE
Pressure: 30.29"   Gusts: NA
Location:  38.58°N, 90.41°W
Report Text: KSTL 190351Z 06004KT 10SM SCT020 OVC030 01/M04 A3029 RMK AO2 SLP266 T00111039
Loading
Personal Weather Stations






























Interactive Weather Map New forecast layout! Learn more

10-Day Weather Forecast

Advertisements
Track Severe Weather on mobile